BIENTÔT MET'MAP
version 2.0 !

Prévue avant fin octobre,
la nouvelle version sera
plus belle, plus complète
et hébergée sur un serveur
3 fois plus puissant...
et toujours gratuite !


Pas compatible ?
Essayez la version Mobile !

SE CONNECTER : | S'inscrire | Disclaimer | Découvrir Orbifly |
Code OACI :
Lgende : VFR VFR Marginal IFR IFR Intensif IFR Trs Intensif
Visi :
Plafond :
>= 8 km
>= 3000ft
5 8 km
1000 3000 ft
1500m 5 km
500 1000 ft
800 1500m
200 500 ft
< 800m
< 200 ft

METAR - LIRE Pratica di Mare Air Base Pomezia - 06 Apr 2020 08:13 UTC
Data Sources :     NOAA   


- Altitude de l'aérodrome : 41 ft
- Pas de NOTAMs connus.


LIRE - Pratica di Mare Air Base Pomezia

Dernier METAR connu : 2015/08/11 07:55 LIRE 110755Z 05001KT 9999 FEW020TCU SCT070 24/21 Q1010 RMK BKN VIS MIN 9999 WIND THR31 00000KT BLU
TAF TAF LIRE
Valide du 06 à 06h jusqu'au 06 à 15h UTC


060500Z 0606/0615 04005KT CAVOK
BECMG 0609/0611 27008KT

Source NOAA


MET'MAP, la Météo Aéronautique d'un coup d'oeil ! - Copyright ORBIFLY Décembre 2007

Développement & Programmation : Alexandra Zaïnal
Co-Développement : Marc-Olivier Méhu
Soutien technique & logistique : Manuel Goepfert
Conception & Financement : Baudouin d'Aumeries